sensor_id;sensor_type;location;lat;lon;timestamp;P1;durP1;ratioP1;P2;durP2;ratioP2
71383;SDS011;61466;52.166;5.004;2022-07-24T00:01:53;204.07;;;193.47;;
71383;SDS011;61466;52.166;5.004;2022-07-24T00:04:18;206.80;;;195.70;;
71383;SDS011;61466;52.166;5.004;2022-07-24T00:06:43;210.03;;;199.17;;
71383;SDS011;61466;52.166;5.004;2022-07-24T00:09:08;203.53;;;192.87;;
71383;SDS011;61466;52.166;5.004;2022-07-24T00:11:34;199.40;;;188.60;;
71383;SDS011;61466;52.166;5.004;2022-07-24T00:13:59;204.27;;;193.30;;
71383;SDS011;61466;52.166;5.004;2022-07-24T00:16:25;210.50;;;199.50;;
71383;SDS011;61466;52.166;5.004;2022-07-24T00:18:50;207.98;;;197.18;;
71383;SDS011;61466;52.166;5.004;2022-07-24T00:21:15;210.37;;;199.33;;
71383;SDS011;61466;52.166;5.004;2022-07-24T00:23:41;205.73;;;194.73;;
71383;SDS011;61466;52.166;5.004;2022-07-24T00:26:08;204.73;;;193.60;;
71383;SDS011;61466;52.166;5.004;2022-07-24T00:28:33;211.93;;;200.47;;
71383;SDS011;61466;52.166;5.004;2022-07-24T00:30:59;213.93;;;202.52;;
71383;SDS011;61466;52.166;5.004;2022-07-24T00:33:24;216.82;;;205.35;;
71383;SDS011;61466;52.166;5.004;2022-07-24T00:35:50;213.20;;;201.83;;
71383;SDS011;61466;52.166;5.004;2022-07-24T00:38:15;216.60;;;205.10;;
71383;SDS011;61466;52.166;5.004;2022-07-24T00:40:41;214.13;;;202.32;;
71383;SDS011;61466;52.166;5.004;2022-07-24T00:43:06;216.68;;;205.35;;
71383;SDS011;61466;52.166;5.004;2022-07-24T00:45:31;214.10;;;202.80;;
71383;SDS011;61466;52.166;5.004;2022-07-24T00:47:57;206.07;;;194.80;;
71383;SDS011;61466;52.166;5.004;2022-07-24T00:50:22;204.13;;;192.53;;
71383;SDS011;61466;52.166;5.004;2022-07-24T00:52:48;208.85;;;197.73;;
71383;SDS011;61466;52.166;5.004;2022-07-24T00:55:14;218.05;;;206.63;;
71383;SDS011;61466;52.166;5.004;2022-07-24T00:57:40;209.27;;;197.93;;
71383;SDS011;61466;52.166;5.004;2022-07-24T01:00:09;211.95;;;200.57;;
71383;SDS011;61466;52.166;5.004;2022-07-24T01:02:35;210.85;;;199.43;;
71383;SDS011;61466;52.166;5.004;2022-07-24T01:05:04;209.70;;;198.10;;
71383;SDS011;61466;52.166;5.004;2022-07-24T01:07:30;209.03;;;197.63;;
71383;SDS011;61466;52.166;5.004;2022-07-24T01:09:55;213.20;;;201.60;;
71383;SDS011;61466;52.166;5.004;2022-07-24T01:12:21;212.38;;;200.80;;
71383;SDS011;61466;52.166;5.004;2022-07-24T01:14:47;211.00;;;199.47;;
71383;SDS011;61466;52.166;5.004;2022-07-24T01:17:12;210.90;;;199.18;;
71383;SDS011;61466;52.166;5.004;2022-07-24T01:19:37;213.73;;;202.07;;
71383;SDS011;61466;52.166;5.004;2022-07-24T01:22:03;219.70;;;207.43;;
71383;SDS011;61466;52.166;5.004;2022-07-24T01:24:28;208.60;;;197.00;;
71383;SDS011;61466;52.166;5.004;2022-07-24T01:26:54;211.88;;;200.18;;
71383;SDS011;61466;52.166;5.004;2022-07-24T01:29:19;216.77;;;204.90;;
71383;SDS011;61466;52.166;5.004;2022-07-24T01:31:45;207.40;;;195.77;;
71383;SDS011;61466;52.166;5.004;2022-07-24T01:34:11;213.52;;;201.70;;
71383;SDS011;61466;52.166;5.004;2022-07-24T01:36:37;210.07;;;198.45;;
71383;SDS011;61466;52.166;5.004;2022-07-24T01:39:02;213.10;;;201.40;;
71383;SDS011;61466;52.166;5.004;2022-07-24T01:41:28;211.10;;;199.30;;
71383;SDS011;61466;52.166;5.004;2022-07-24T01:43:53;207.07;;;195.27;;
71383;SDS011;61466;52.166;5.004;2022-07-24T01:46:18;214.90;;;202.80;;
71383;SDS011;61466;52.166;5.004;2022-07-24T01:48:44;211.80;;;200.00;;
71383;SDS011;61466;52.166;5.004;2022-07-24T01:51:09;204.27;;;192.73;;
71383;SDS011;61466;52.166;5.004;2022-07-24T01:53:35;208.23;;;196.53;;
71383;SDS011;61466;52.166;5.004;2022-07-24T01:56:01;214.88;;;202.48;;
71383;SDS011;61466;52.166;5.004;2022-07-24T01:58:27;207.40;;;195.55;;
71383;SDS011;61466;52.166;5.004;2022-07-24T02:00:52;209.80;;;197.90;;
71383;SDS011;61466;52.166;5.004;2022-07-24T02:03:19;215.85;;;203.35;;
71383;SDS011;61466;52.166;5.004;2022-07-24T02:05:45;209.95;;;198.23;;
71383;SDS011;61466;52.166;5.004;2022-07-24T02:08:10;211.70;;;199.57;;
71383;SDS011;61466;52.166;5.004;2022-07-24T02:10:36;214.30;;;201.97;;
71383;SDS011;61466;52.166;5.004;2022-07-24T02:13:01;211.73;;;199.80;;
71383;SDS011;61466;52.166;5.004;2022-07-24T02:15:27;204.30;;;192.55;;
71383;SDS011;61466;52.166;5.004;2022-07-24T02:17:57;219.03;;;206.73;;
71383;SDS011;61466;52.166;5.004;2022-07-24T02:20:24;206.63;;;194.80;;
71383;SDS011;61466;52.166;5.004;2022-07-24T02:22:50;208.05;;;195.98;;
71383;SDS011;61466;52.166;5.004;2022-07-24T02:25:16;207.13;;;194.63;;
71383;SDS011;61466;52.166;5.004;2022-07-24T02:27:41;210.27;;;197.97;;
71383;SDS011;61466;52.166;5.004;2022-07-24T02:30:09;206.47;;;194.30;;
71383;SDS011;61466;52.166;5.004;2022-07-24T02:32:36;199.82;;;188.05;;
71383;SDS011;61466;52.166;5.004;2022-07-24T02:35:02;203.73;;;191.38;;
71383;SDS011;61466;52.166;5.004;2022-07-24T02:37:28;201.05;;;188.80;;
71383;SDS011;61466;52.166;5.004;2022-07-24T02:39:53;202.37;;;189.73;;
71383;SDS011;61466;52.166;5.004;2022-07-24T02:42:19;191.30;;;179.17;;
71383;SDS011;61466;52.166;5.004;2022-07-24T02:44:44;189.60;;;177.43;;
71383;SDS011;61466;52.166;5.004;2022-07-24T02:47:09;184.23;;;172.50;;
71383;SDS011;61466;52.166;5.004;2022-07-24T02:49:35;195.33;;;183.00;;
71383;SDS011;61466;52.166;5.004;2022-07-24T02:52:01;185.32;;;173.10;;
71383;SDS011;61466;52.166;5.004;2022-07-24T02:54:27;183.18;;;171.05;;
71383;SDS011;61466;52.166;5.004;2022-07-24T02:56:52;190.17;;;177.80;;
71383;SDS011;61466;52.166;5.004;2022-07-24T02:59:18;182.30;;;170.30;;
71383;SDS011;61466;52.166;5.004;2022-07-24T03:01:43;185.10;;;172.73;;
71383;SDS011;61466;52.166;5.004;2022-07-24T03:04:08;186.33;;;174.23;;
71383;SDS011;61466;52.166;5.004;2022-07-24T03:06:34;201.77;;;188.97;;
71383;SDS011;61466;52.166;5.004;2022-07-24T03:09:00;189.68;;;176.80;;
71383;SDS011;61466;52.166;5.004;2022-07-24T03:11:25;191.07;;;178.93;;
71383;SDS011;61466;52.166;5.004;2022-07-24T03:13:51;194.25;;;181.88;;
71383;SDS011;61466;52.166;5.004;2022-07-24T03:16:16;203.93;;;190.77;;
71383;SDS011;61466;52.166;5.004;2022-07-24T03:18:42;190.53;;;178.30;;
71383;SDS011;61466;52.166;5.004;2022-07-24T03:21:11;189.77;;;177.18;;
71383;SDS011;61466;52.166;5.004;2022-07-24T03:23:42;204.75;;;192.02;;
71383;SDS011;61466;52.166;5.004;2022-07-24T03:26:08;192.50;;;180.50;;
71383;SDS011;61466;52.166;5.004;2022-07-24T03:28:33;196.93;;;184.47;;
71383;SDS011;61466;52.166;5.004;2022-07-24T03:30:59;199.35;;;186.98;;
71383;SDS011;61466;52.166;5.004;2022-07-24T03:33:25;197.03;;;184.53;;
71383;SDS011;61466;52.166;5.004;2022-07-24T03:35:51;201.23;;;189.10;;
71383;SDS011;61466;52.166;5.004;2022-07-24T03:38:17;200.93;;;188.63;;
71383;SDS011;61466;52.166;5.004;2022-07-24T03:40:42;198.23;;;185.55;;
71383;SDS011;61466;52.166;5.004;2022-07-24T03:43:07;202.43;;;189.60;;
71383;SDS011;61466;52.166;5.004;2022-07-24T03:45:33;197.23;;;184.73;;
71383;SDS011;61466;52.166;5.004;2022-07-24T03:47:58;204.00;;;191.47;;
71383;SDS011;61466;52.166;5.004;2022-07-24T03:50:24;202.60;;;189.50;;
71383;SDS011;61466;52.166;5.004;2022-07-24T03:52:49;198.37;;;185.90;;
71383;SDS011;61466;52.166;5.004;2022-07-24T03:55:15;209.82;;;196.90;;
71383;SDS011;61466;52.166;5.004;2022-07-24T03:57:40;205.23;;;192.50;;
71383;SDS011;61466;52.166;5.004;2022-07-24T04:00:06;201.32;;;189.00;;
71383;SDS011;61466;52.166;5.004;2022-07-24T04:02:33;210.77;;;198.13;;
71383;SDS011;61466;52.166;5.004;2022-07-24T04:04:58;215.45;;;202.00;;
71383;SDS011;61466;52.166;5.004;2022-07-24T04:07:24;212.23;;;198.93;;
71383;SDS011;61466;52.166;5.004;2022-07-24T04:09:49;204.57;;;191.77;;
71383;SDS011;61466;52.166;5.004;2022-07-24T04:12:14;209.73;;;196.53;;
71383;SDS011;61466;52.166;5.004;2022-07-24T04:14:39;202.80;;;189.90;;
71383;SDS011;61466;52.166;5.004;2022-07-24T04:17:05;205.67;;;192.90;;
71383;SDS011;61466;52.166;5.004;2022-07-24T04:19:30;216.50;;;203.63;;
71383;SDS011;61466;52.166;5.004;2022-07-24T04:21:56;210.77;;;197.80;;
71383;SDS011;61466;52.166;5.004;2022-07-24T04:24:22;211.60;;;198.97;;
71383;SDS011;61466;52.166;5.004;2022-07-24T04:26:47;206.60;;;193.93;;
71383;SDS011;61466;52.166;5.004;2022-07-24T04:29:13;216.43;;;203.68;;
71383;SDS011;61466;52.166;5.004;2022-07-24T04:31:38;213.97;;;201.33;;
71383;SDS011;61466;52.166;5.004;2022-07-24T04:34:03;216.07;;;202.50;;
71383;SDS011;61466;52.166;5.004;2022-07-24T04:36:29;211.07;;;198.80;;
71383;SDS011;61466;52.166;5.004;2022-07-24T04:38:54;218.20;;;205.38;;
71383;SDS011;61466;52.166;5.004;2022-07-24T04:41:20;212.38;;;200.00;;
71383;SDS011;61466;52.166;5.004;2022-07-24T04:43:45;210.87;;;198.37;;
71383;SDS011;61466;52.166;5.004;2022-07-24T04:46:10;206.40;;;194.00;;
71383;SDS011;61466;52.166;5.004;2022-07-24T04:48:36;214.13;;;201.43;;
71383;SDS011;61466;52.166;5.004;2022-07-24T04:51:01;211.93;;;199.98;;
71383;SDS011;61466;52.166;5.004;2022-07-24T04:53:27;211.87;;;199.37;;
71383;SDS011;61466;52.166;5.004;2022-07-24T04:55:54;203.13;;;191.40;;
71383;SDS011;61466;52.166;5.004;2022-07-24T04:58:20;204.80;;;193.07;;
71383;SDS011;61466;52.166;5.004;2022-07-24T05:00:45;211.13;;;199.03;;
71383;SDS011;61466;52.166;5.004;2022-07-24T05:03:10;210.23;;;198.53;;
71383;SDS011;61466;52.166;5.004;2022-07-24T05:05:36;224.47;;;212.07;;
71383;SDS011;61466;52.166;5.004;2022-07-24T05:08:01;226.50;;;213.97;;
71383;SDS011;61466;52.166;5.004;2022-07-24T05:10:26;220.23;;;208.07;;
71383;SDS011;61466;52.166;5.004;2022-07-24T05:12:52;235.15;;;222.25;;
71383;SDS011;61466;52.166;5.004;2022-07-24T05:15:17;240.23;;;227.53;;
71383;SDS011;61466;52.166;5.004;2022-07-24T05:17:42;241.37;;;229.03;;
71383;SDS011;61466;52.166;5.004;2022-07-24T05:20:08;243.37;;;230.73;;
71383;SDS011;61466;52.166;5.004;2022-07-24T05:22:34;248.70;;;235.73;;
71383;SDS011;61466;52.166;5.004;2022-07-24T05:24:59;243.17;;;230.47;;
71383;SDS011;61466;52.166;5.004;2022-07-24T05:27:24;253.00;;;239.80;;
71383;SDS011;61466;52.166;5.004;2022-07-24T05:29:50;260.57;;;247.10;;
71383;SDS011;61466;52.166;5.004;2022-07-24T05:32:15;253.37;;;240.60;;
71383;SDS011;61466;52.166;5.004;2022-07-24T05:34:40;266.23;;;253.00;;
71383;SDS011;61466;52.166;5.004;2022-07-24T05:37:06;261.23;;;248.43;;
71383;SDS011;61466;52.166;5.004;2022-07-24T05:39:31;276.67;;;263.08;;
71383;SDS011;61466;52.166;5.004;2022-07-24T05:41:57;274.73;;;261.13;;
71383;SDS011;61466;52.166;5.004;2022-07-24T05:44:22;254.67;;;242.03;;
71383;SDS011;61466;52.166;5.004;2022-07-24T05:46:47;272.13;;;258.63;;
71383;SDS011;61466;52.166;5.004;2022-07-24T05:49:13;289.37;;;275.20;;
71383;SDS011;61466;52.166;5.004;2022-07-24T05:51:38;283.95;;;270.05;;
71383;SDS011;61466;52.166;5.004;2022-07-24T05:54:03;289.38;;;275.60;;
71383;SDS011;61466;52.166;5.004;2022-07-24T05:56:29;284.53;;;270.63;;
71383;SDS011;61466;52.166;5.004;2022-07-24T05:58:55;293.20;;;279.20;;
71383;SDS011;61466;52.166;5.004;2022-07-24T06:01:20;299.70;;;285.58;;
71383;SDS011;61466;52.166;5.004;2022-07-24T06:03:45;302.70;;;288.70;;
71383;SDS011;61466;52.166;5.004;2022-07-24T06:06:11;299.20;;;285.27;;
71383;SDS011;61466;52.166;5.004;2022-07-24T06:08:36;308.73;;;294.43;;
71383;SDS011;61466;52.166;5.004;2022-07-24T06:11:01;308.37;;;293.97;;
71383;SDS011;61466;52.166;5.004;2022-07-24T06:13:27;310.83;;;296.30;;
71383;SDS011;61466;52.166;5.004;2022-07-24T06:15:52;306.10;;;291.93;;
71383;SDS011;61466;52.166;5.004;2022-07-24T06:18:17;320.10;;;305.35;;
71383;SDS011;61466;52.166;5.004;2022-07-24T06:20:43;315.17;;;300.57;;
71383;SDS011;61466;52.166;5.004;2022-07-24T06:23:08;320.37;;;305.70;;
71383;SDS011;61466;52.166;5.004;2022-07-24T06:25:33;327.40;;;312.30;;
71383;SDS011;61466;52.166;5.004;2022-07-24T06:27:59;326.10;;;311.27;;
71383;SDS011;61466;52.166;5.004;2022-07-24T06:30:25;326.23;;;311.27;;
71383;SDS011;61466;52.166;5.004;2022-07-24T06:32:58;330.65;;;315.73;;
71383;SDS011;61466;52.166;5.004;2022-07-24T06:35:24;338.27;;;323.13;;
71383;SDS011;61466;52.166;5.004;2022-07-24T06:37:51;338.05;;;322.98;;
71383;SDS011;61466;52.166;5.004;2022-07-24T06:40:16;334.40;;;319.60;;
71383;SDS011;61466;52.166;5.004;2022-07-24T06:42:43;341.90;;;326.48;;
71383;SDS011;61466;52.166;5.004;2022-07-24T06:45:09;348.97;;;333.53;;
71383;SDS011;61466;52.166;5.004;2022-07-24T06:47:35;347.13;;;331.92;;
71383;SDS011;61466;52.166;5.004;2022-07-24T06:50:00;320.77;;;306.13;;
71383;SDS011;61466;52.166;5.004;2022-07-24T06:52:26;342.70;;;327.63;;
71383;SDS011;61466;52.166;5.004;2022-07-24T06:54:51;320.53;;;306.23;;
71383;SDS011;61466;52.166;5.004;2022-07-24T06:57:17;348.73;;;333.33;;
71383;SDS011;61466;52.166;5.004;2022-07-24T06:59:43;331.40;;;316.60;;
71383;SDS011;61466;52.166;5.004;2022-07-24T07:02:09;333.87;;;319.00;;
71383;SDS011;61466;52.166;5.004;2022-07-24T07:04:34;327.63;;;313.07;;
71383;SDS011;61466;52.166;5.004;2022-07-24T07:06:59;331.75;;;316.95;;
71383;SDS011;61466;52.166;5.004;2022-07-24T07:09:25;329.07;;;314.53;;
71383;SDS011;61466;52.166;5.004;2022-07-24T07:11:50;335.43;;;320.70;;
71383;SDS011;61466;52.166;5.004;2022-07-24T07:14:16;343.63;;;328.47;;
71383;SDS011;61466;52.166;5.004;2022-07-24T07:16:41;346.53;;;331.33;;
71383;SDS011;61466;52.166;5.004;2022-07-24T07:19:06;340.47;;;325.60;;
71383;SDS011;61466;52.166;5.004;2022-07-24T07:21:32;339.33;;;324.47;;
71383;SDS011;61466;52.166;5.004;2022-07-24T07:23:57;333.37;;;318.73;;
71383;SDS011;61466;52.166;5.004;2022-07-24T07:26:22;328.73;;;314.30;;
71383;SDS011;61466;52.166;5.004;2022-07-24T07:28:48;333.30;;;318.60;;
71383;SDS011;61466;52.166;5.004;2022-07-24T07:31:13;341.90;;;327.00;;
71383;SDS011;61466;52.166;5.004;2022-07-24T07:33:39;331.47;;;316.67;;
71383;SDS011;61466;52.166;5.004;2022-07-24T07:36:04;323.03;;;308.80;;
71383;SDS011;61466;52.166;5.004;2022-07-24T07:38:29;322.53;;;308.23;;
71383;SDS011;61466;52.166;5.004;2022-07-24T07:40:55;319.47;;;305.37;;
71383;SDS011;61466;52.166;5.004;2022-07-24T07:43:20;322.08;;;307.92;;
71383;SDS011;61466;52.166;5.004;2022-07-24T07:45:46;325.03;;;310.80;;
71383;SDS011;61466;52.166;5.004;2022-07-24T07:48:11;328.00;;;313.40;;
71383;SDS011;61466;52.166;5.004;2022-07-24T07:50:36;328.20;;;313.60;;
71383;SDS011;61466;52.166;5.004;2022-07-24T07:53:02;334.57;;;319.93;;
71383;SDS011;61466;52.166;5.004;2022-07-24T07:55:27;342.20;;;327.20;;
71383;SDS011;61466;52.166;5.004;2022-07-24T07:57:52;345.77;;;330.37;;
71383;SDS011;61466;52.166;5.004;2022-07-24T08:00:17;331.70;;;317.17;;
71383;SDS011;61466;52.166;5.004;2022-07-24T08:02:44;334.13;;;319.45;;
71383;SDS011;61466;52.166;5.004;2022-07-24T08:05:09;331.87;;;317.37;;
71383;SDS011;61466;52.166;5.004;2022-07-24T08:07:35;347.08;;;331.58;;
71383;SDS011;61466;52.166;5.004;2022-07-24T08:10:00;348.83;;;333.63;;
71383;SDS011;61466;52.166;5.004;2022-07-24T08:12:26;355.80;;;340.23;;
71383;SDS011;61466;52.166;5.004;2022-07-24T08:14:51;367.83;;;351.73;;
71383;SDS011;61466;52.166;5.004;2022-07-24T08:17:16;334.07;;;319.37;;
71383;SDS011;61466;52.166;5.004;2022-07-24T08:19:42;338.63;;;323.83;;
71383;SDS011;61466;52.166;5.004;2022-07-24T08:22:07;319.67;;;305.37;;
71383;SDS011;61466;52.166;5.004;2022-07-24T08:24:33;332.37;;;317.67;;
71383;SDS011;61466;52.166;5.004;2022-07-24T08:26:59;311.00;;;297.13;;
71383;SDS011;61466;52.166;5.004;2022-07-24T08:29:24;321.40;;;307.23;;
71383;SDS011;61466;52.166;5.004;2022-07-24T08:31:51;318.67;;;304.48;;
71383;SDS011;61466;52.166;5.004;2022-07-24T08:34:16;332.27;;;317.73;;
71383;SDS011;61466;52.166;5.004;2022-07-24T08:36:41;331.63;;;316.67;;
71383;SDS011;61466;52.166;5.004;2022-07-24T08:39:10;335.98;;;321.08;;
71383;SDS011;61466;52.166;5.004;2022-07-24T08:41:40;337.60;;;322.52;;
71383;SDS011;61466;52.166;5.004;2022-07-24T08:44:05;337.43;;;322.43;;
71383;SDS011;61466;52.166;5.004;2022-07-24T08:46:31;327.10;;;312.20;;
71383;SDS011;61466;52.166;5.004;2022-07-24T08:48:57;344.83;;;329.75;;
71383;SDS011;61466;52.166;5.004;2022-07-24T08:51:23;334.30;;;319.52;;
71383;SDS011;61466;52.166;5.004;2022-07-24T08:53:56;333.75;;;318.85;;
71383;SDS011;61466;52.166;5.004;2022-07-24T08:56:22;345.23;;;329.87;;
71383;SDS011;61466;52.166;5.004;2022-07-24T08:58:47;349.00;;;333.60;;
71383;SDS011;61466;52.166;5.004;2022-07-24T09:01:13;355.47;;;339.70;;
71383;SDS011;61466;52.166;5.004;2022-07-24T09:03:39;362.30;;;346.43;;
71383;SDS011;61466;52.166;5.004;2022-07-24T09:06:06;362.85;;;347.00;;
71383;SDS011;61466;52.166;5.004;2022-07-24T09:08:33;364.83;;;348.88;;
71383;SDS011;61466;52.166;5.004;2022-07-24T09:10:59;335.17;;;320.40;;
71383;SDS011;61466;52.166;5.004;2022-07-24T09:13:30;314.08;;;299.88;;
71383;SDS011;61466;52.166;5.004;2022-07-24T09:16:23;323.17;;;308.42;;
71383;SDS011;61466;52.166;5.004;2022-07-24T09:19:01;330.00;;;315.42;;
71383;SDS011;61466;52.166;5.004;2022-07-24T09:21:30;355.70;;;340.00;;
71383;SDS011;61466;52.166;5.004;2022-07-24T09:23:58;354.42;;;338.75;;
71383;SDS011;61466;52.166;5.004;2022-07-24T09:26:49;365.65;;;349.63;;
71383;SDS011;61466;52.166;5.004;2022-07-24T09:29:18;373.20;;;356.88;;
71383;SDS011;61466;52.166;5.004;2022-07-24T09:32:03;379.27;;;362.60;;
71383;SDS011;61466;52.166;5.004;2022-07-24T09:34:29;378.23;;;361.77;;
71383;SDS011;61466;52.166;5.004;2022-07-24T09:37:03;379.77;;;362.95;;
71383;SDS011;61466;52.166;5.004;2022-07-24T09:39:31;378.67;;;362.13;;
71383;SDS011;61466;52.166;5.004;2022-07-24T09:41:58;357.98;;;342.00;;
71383;SDS011;61466;52.166;5.004;2022-07-24T09:44:25;368.52;;;352.45;;
71383;SDS011;61466;52.166;5.004;2022-07-24T09:46:54;371.43;;;355.27;;
71383;SDS011;61466;52.166;5.004;2022-07-24T09:49:49;369.38;;;353.02;;
71383;SDS011;61466;52.166;5.004;2022-07-24T09:52:17;374.52;;;358.15;;
71383;SDS011;61466;52.166;5.004;2022-07-24T09:54:47;382.08;;;365.48;;
71383;SDS011;61466;52.166;5.004;2022-07-24T09:59:53;377.90;;;361.45;;
71383;SDS011;61466;52.166;5.004;2022-07-24T10:02:21;373.98;;;357.25;;
71383;SDS011;61466;52.166;5.004;2022-07-24T10:04:54;384.13;;;367.27;;
71383;SDS011;61466;52.166;5.004;2022-07-24T10:07:21;382.33;;;365.48;;
71383;SDS011;61466;52.166;5.004;2022-07-24T10:09:49;383.63;;;366.90;;
71383;SDS011;61466;52.166;5.004;2022-07-24T10:12:17;387.25;;;370.35;;
71383;SDS011;61466;52.166;5.004;2022-07-24T10:14:45;390.05;;;372.92;;
71383;SDS011;61466;52.166;5.004;2022-07-24T10:17:13;382.77;;;366.02;;
71383;SDS011;61466;52.166;5.004;2022-07-24T10:19:46;389.60;;;372.45;;
71383;SDS011;61466;52.166;5.004;2022-07-24T10:29:57;394.30;;;377.08;;
71383;SDS011;61466;52.166;5.004;2022-07-24T10:32:25;404.25;;;386.67;;
71383;SDS011;61466;52.166;5.004;2022-07-24T10:34:55;403.07;;;385.63;;
71383;SDS011;61466;52.166;5.004;2022-07-24T10:37:28;394.20;;;377.08;;
71383;SDS011;61466;52.166;5.004;2022-07-24T10:40:05;399.10;;;381.55;;
71383;SDS011;61466;52.166;5.004;2022-07-24T10:45:37;292.42;;;279.27;;
71383;SDS011;61466;52.166;5.004;2022-07-24T10:48:24;313.33;;;299.40;;
71383;SDS011;61466;52.166;5.004;2022-07-24T10:53:44;382.90;;;365.90;;
71383;SDS011;61466;52.166;5.004;2022-07-24T11:01:45;405.87;;;388.17;;
71383;SDS011;61466;52.166;5.004;2022-07-24T11:09:17;400.25;;;382.70;;
71383;SDS011;61466;52.166;5.004;2022-07-24T11:14:24;404.60;;;387.03;;
71383;SDS011;61466;52.166;5.004;2022-07-24T11:20:08;410.88;;;393.15;;
71383;SDS011;61466;52.166;5.004;2022-07-24T11:22:42;401.95;;;384.42;;
71383;SDS011;61466;52.166;5.004;2022-07-24T11:25:16;409.42;;;391.77;;
71383;SDS011;61466;52.166;5.004;2022-07-24T11:27:49;400.83;;;383.30;;
71383;SDS011;61466;52.166;5.004;2022-07-24T11:30:18;395.88;;;378.58;;
71383;SDS011;61466;52.166;5.004;2022-07-24T11:32:45;376.13;;;359.73;;
71383;SDS011;61466;52.166;5.004;2022-07-24T11:35:10;378.67;;;362.03;;
71383;SDS011;61466;52.166;5.004;2022-07-24T11:37:37;382.50;;;365.90;;
71383;SDS011;61466;52.166;5.004;2022-07-24T11:40:05;383.75;;;367.02;;
71383;SDS011;61466;52.166;5.004;2022-07-24T11:42:32;379.35;;;362.75;;
71383;SDS011;61466;52.166;5.004;2022-07-24T11:44:58;381.23;;;364.63;;
71383;SDS011;61466;52.166;5.004;2022-07-24T11:47:24;390.73;;;373.77;;
71383;SDS011;61466;52.166;5.004;2022-07-24T11:49:52;399.60;;;382.20;;
71383;SDS011;61466;52.166;5.004;2022-07-24T11:52:25;395.00;;;377.73;;
71383;SDS011;61466;52.166;5.004;2022-07-24T11:55:03;398.38;;;381.08;;
71383;SDS011;61466;52.166;5.004;2022-07-24T11:57:33;393.63;;;376.45;;
71383;SDS011;61466;52.166;5.004;2022-07-24T12:00:01;399.63;;;382.00;;
71383;SDS011;61466;52.166;5.004;2022-07-24T12:02:28;398.63;;;381.30;;
71383;SDS011;61466;52.166;5.004;2022-07-24T12:04:54;403.23;;;385.63;;
71383;SDS011;61466;52.166;5.004;2022-07-24T12:07:24;402.07;;;384.40;;
71383;SDS011;61466;52.166;5.004;2022-07-24T12:09:54;404.73;;;387.08;;
71383;SDS011;61466;52.166;5.004;2022-07-24T12:12:30;408.48;;;390.80;;
71383;SDS011;61466;52.166;5.004;2022-07-24T12:15:07;401.50;;;383.97;;
71383;SDS011;61466;52.166;5.004;2022-07-24T12:23:08;399.85;;;382.23;;
71383;SDS011;61466;52.166;5.004;2022-07-24T12:25:35;389.08;;;372.15;;
71383;SDS011;61466;52.166;5.004;2022-07-24T12:28:02;396.93;;;379.63;;
71383;SDS011;61466;52.166;5.004;2022-07-24T12:30:36;405.73;;;387.98;;
71383;SDS011;61466;52.166;5.004;2022-07-24T12:35:54;396.13;;;378.92;;
71383;SDS011;61466;52.166;5.004;2022-07-24T12:38:33;395.50;;;378.00;;
71383;SDS011;61466;52.166;5.004;2022-07-24T12:46:28;401.25;;;383.85;;
71383;SDS011;61466;52.166;5.004;2022-07-24T12:49:19;399.35;;;381.85;;
71383;SDS011;61466;52.166;5.004;2022-07-24T12:51:56;398.08;;;380.75;;
71383;SDS011;61466;52.166;5.004;2022-07-24T12:56:51;404.65;;;387.10;;
71383;SDS011;61466;52.166;5.004;2022-07-24T12:59:32;395.00;;;377.80;;
71383;SDS011;61466;52.166;5.004;2022-07-24T13:02:02;406.85;;;389.15;;
71383;SDS011;61466;52.166;5.004;2022-07-24T13:04:42;400.17;;;382.80;;
71383;SDS011;61466;52.166;5.004;2022-07-24T13:07:09;397.50;;;380.27;;
71383;SDS011;61466;52.166;5.004;2022-07-24T13:09:36;400.90;;;383.55;;
71383;SDS011;61466;52.166;5.004;2022-07-24T13:12:01;398.63;;;381.13;;
71383;SDS011;61466;52.166;5.004;2022-07-24T13:14:27;400.90;;;383.33;;
71383;SDS011;61466;52.166;5.004;2022-07-24T13:16:54;398.00;;;380.73;;
71383;SDS011;61466;52.166;5.004;2022-07-24T13:19:28;403.33;;;385.77;;
71383;SDS011;61466;52.166;5.004;2022-07-24T13:21:54;376.00;;;359.45;;
71383;SDS011;61466;52.166;5.004;2022-07-24T13:24:19;368.33;;;352.17;;
71383;SDS011;61466;52.166;5.004;2022-07-24T13:26:45;363.27;;;347.17;;
71383;SDS011;61466;52.166;5.004;2022-07-24T13:29:11;293.33;;;279.80;;
71383;SDS011;61466;52.166;5.004;2022-07-24T13:31:38;293.23;;;280.13;;
71383;SDS011;61466;52.166;5.004;2022-07-24T13:34:04;305.75;;;291.90;;
71383;SDS011;61466;52.166;5.004;2022-07-24T13:36:31;329.40;;;314.70;;
71383;SDS011;61466;52.166;5.004;2022-07-24T13:38:58;319.33;;;305.08;;
71383;SDS011;61466;52.166;5.004;2022-07-24T13:41:24;327.87;;;313.47;;
71383;SDS011;61466;52.166;5.004;2022-07-24T13:43:50;325.38;;;311.08;;
71383;SDS011;61466;52.166;5.004;2022-07-24T13:46:16;332.17;;;317.45;;
71383;SDS011;61466;52.166;5.004;2022-07-24T13:48:42;344.70;;;329.60;;
71383;SDS011;61466;52.166;5.004;2022-07-24T13:51:09;354.20;;;338.80;;
71383;SDS011;61466;52.166;5.004;2022-07-24T13:53:34;353.97;;;338.60;;
71383;SDS011;61466;52.166;5.004;2022-07-24T13:56:00;356.10;;;340.53;;
71383;SDS011;61466;52.166;5.004;2022-07-24T13:58:25;357.67;;;341.97;;
71383;SDS011;61466;52.166;5.004;2022-07-24T14:00:50;364.03;;;347.97;;
71383;SDS011;61466;52.166;5.004;2022-07-24T14:03:16;369.95;;;353.85;;
71383;SDS011;61466;52.166;5.004;2022-07-24T14:05:41;372.67;;;356.47;;
71383;SDS011;61466;52.166;5.004;2022-07-24T14:08:07;371.93;;;355.63;;
71383;SDS011;61466;52.166;5.004;2022-07-24T14:10:32;369.60;;;353.40;;
71383;SDS011;61466;52.166;5.004;2022-07-24T14:12:57;334.20;;;319.60;;
71383;SDS011;61466;52.166;5.004;2022-07-24T14:15:23;326.63;;;312.15;;
71383;SDS011;61466;52.166;5.004;2022-07-24T14:17:48;315.27;;;301.23;;
71383;SDS011;61466;52.166;5.004;2022-07-24T14:20:14;322.87;;;308.73;;
71383;SDS011;61466;52.166;5.004;2022-07-24T14:22:39;329.20;;;314.67;;
71383;SDS011;61466;52.166;5.004;2022-07-24T14:25:06;328.75;;;314.33;;
71383;SDS011;61466;52.166;5.004;2022-07-24T14:27:32;322.08;;;307.80;;
71383;SDS011;61466;52.166;5.004;2022-07-24T14:29:58;321.45;;;306.95;;
71383;SDS011;61466;52.166;5.004;2022-07-24T14:32:24;323.63;;;309.33;;
71383;SDS011;61466;52.166;5.004;2022-07-24T14:34:50;327.27;;;312.97;;
71383;SDS011;61466;52.166;5.004;2022-07-24T14:37:16;337.27;;;322.58;;
71383;SDS011;61466;52.166;5.004;2022-07-24T14:39:41;336.67;;;321.77;;
71383;SDS011;61466;52.166;5.004;2022-07-24T14:42:07;335.98;;;320.88;;
71383;SDS011;61466;52.166;5.004;2022-07-24T14:44:32;332.07;;;317.47;;